Time;durP1;ratioP1;P1;durP2;ratioP2;P2;SDS_P1;SDS_P2;PMS_P1;PMS_P2;Temp;Humidity;BMP_temperature;BMP_pressure;BME280_temperature;BME280_humidity;BME280_pressure;Samples;Min_cycle;Max_cycle;Signal;HPM_P1;HPM_P2
2023/03/19 00:00:33;;;;;;;39.40;16.10;;;;;;;5.96;63.71;99793.41;107521;1279;71336;-69
2023/03/19 00:03:38;;;;;;;27.70;13.00;;;;;;;5.89;63.99;99792.39;107518;1279;57280;-70
2023/03/19 00:06:24;;;;;;;30.40;13.80;;;;;;;5.84;64.39;99791.53;107559;1278;59290;-69
2023/03/19 00:09:11;;;;;;;32.50;15.10;;;;;;;5.79;64.75;99791.27;107527;1279;74095;-71
2023/03/19 00:11:57;;;;;;;31.80;11.20;;;;;;;5.76;64.73;99788.61;107540;1279;67713;-70
2023/03/19 00:14:44;;;;;;;30.30;13.70;;;;;;;5.75;64.95;99793.27;107340;1279;73594;-70
2023/03/19 00:17:31;;;;;;;31.70;14.00;;;;;;;5.73;65.02;99793.56;107454;1279;58401;-70
2023/03/19 00:20:18;;;;;;;31.80;14.20;;;;;;;5.72;65.44;99793.26;107527;1279;60393;-69
2023/03/19 00:23:06;;;;;;;30.70;14.10;;;;;;;5.70;65.45;99794.47;107373;1279;73552;-68
2023/03/19 00:25:53;;;;;;;32.50;14.50;;;;;;;5.69;65.57;99793.49;107488;1279;67794;-70
2023/03/19 00:28:40;;;;;;;34.00;15.30;;;;;;;5.68;65.49;99793.73;107229;1279;71230;-69
2023/03/19 00:31:28;;;;;;;30.50;14.30;;;;;;;5.66;65.70;99789.77;107312;1279;57373;-69
2023/03/19 00:34:17;;;;;;;31.90;15.60;;;;;;;5.65;65.66;99791.27;107341;1279;58064;-69
2023/03/19 00:37:04;;;;;;;35.30;15.70;;;;;;;5.61;65.81;99789.00;107445;1279;73153;-71
2023/03/19 00:39:50;;;;;;;30.50;14.30;;;;;;;5.58;65.75;99785.31;107558;1278;66974;-69
2023/03/19 00:42:36;;;;;;;32.00;13.20;;;;;;;5.54;65.99;99791.89;107313;1279;73422;-70
2023/03/19 00:45:24;;;;;;;33.00;14.60;;;;;;;5.53;66.40;99793.95;107514;1278;57380;-71
2023/03/19 00:48:11;;;;;;;27.10;12.90;;;;;;;5.53;66.56;99793.55;107609;1278;59680;-71
2023/03/19 00:51:09;;;;;;;30.50;14.10;;;;;;;5.55;66.49;99793.97;107539;1279;73072;-69
2023/03/19 00:53:56;;;;;;;28.30;13.50;;;;;;;5.56;66.29;99796.35;107526;1278;69038;-71
2023/03/19 00:56:42;;;;;;;30.40;14.80;;;;;;;5.56;66.32;99798.46;107523;1278;72489;-71
2023/03/19 00:59:29;;;;;;;32.80;14.50;;;;;;;5.56;66.60;99794.11;107615;1278;57456;-70
2023/03/19 01:02:16;;;;;;;34.60;14.70;;;;;;;5.54;66.31;99790.33;107520;1279;61463;-72
2023/03/19 01:05:03;;;;;;;31.10;14.80;;;;;;;5.53;66.54;99789.70;107580;1278;73182;-70
2023/03/19 01:07:50;;;;;;;30.50;14.00;;;;;;;5.51;66.81;99796.00;107638;1277;69384;-71
2023/03/19 01:10:36;;;;;;;31.00;14.90;;;;;;;5.50;66.91;99796.92;107439;1278;73759;-72
2023/03/19 01:13:23;;;;;;;30.60;13.60;;;;;;;5.51;66.94;99797.77;107441;1279;57367;-70
2023/03/19 01:16:10;;;;;;;32.40;14.30;;;;;;;5.51;66.91;99802.84;107608;1280;60141;-71
2023/03/19 01:18:57;;;;;;;29.10;14.10;;;;;;;5.52;67.01;99801.52;107418;1278;72642;-72
2023/03/19 01:21:45;;;;;;;29.90;14.30;;;;;;;5.54;67.09;99800.36;107367;1279;68333;-71
2023/03/19 01:24:33;;;;;;;30.40;14.20;;;;;;;5.55;67.05;99799.45;107331;1278;72552;-72
2023/03/19 01:27:21;;;;;;;28.60;13.90;;;;;;;5.56;67.12;99794.44;107511;1278;57365;-72
2023/03/19 01:30:09;;;;;;;26.70;12.80;;;;;;;5.56;67.27;99798.47;107539;1280;58915;-70
2023/03/19 01:33:15;;;;;;;29.00;12.80;;;;;;;5.56;67.04;99810.24;107490;1279;72960;-71
2023/03/19 01:36:22;;;;;;;28.00;14.10;;;;;;;5.57;67.22;99807.92;106792;1280;1002144;-71
2023/03/19 01:39:29;;;;;;;27.80;13.40;;;;;;;5.57;67.32;99804.57;107632;1278;72337;-70
2023/03/19 01:42:16;;;;;;;26.80;13.00;;;;;;;5.57;67.23;99803.52;107505;1279;57367;-70
2023/03/19 01:45:37;;;;;;;28.00;13.10;;;;;;;5.56;67.17;99804.14;107551;1278;60464;-70
2023/03/19 01:48:59;;;;;;;35.50;14.70;;;;;;;5.54;67.25;99808.13;107300;1279;73031;-69
2023/03/19 01:51:46;;;;;;;32.60;14.80;;;;;;;5.52;67.02;99811.02;107364;1278;67529;-71
2023/03/19 01:55:00;;;;;;;32.30;14.80;;;;;;;5.54;67.38;99816.92;107463;1278;73597;-71
2023/03/19 01:58:13;;;;;;;25.40;13.10;;;;;;;5.56;67.36;99817.14;107342;1278;59800;-72
2023/03/19 02:00:59;;;;;;;29.50;14.10;;;;;;;5.60;67.22;99822.00;107579;1278;60233;-71
2023/03/19 02:03:49;;;;;;;27.10;12.40;;;;;;;5.63;67.13;99818.28;107534;1279;73111;-71
2023/03/19 02:06:42;;;;;;;30.00;13.50;;;;;;;5.67;67.18;99815.92;107560;1280;66278;-70
2023/03/19 02:09:30;;;;;;;30.60;13.80;;;;;;;5.71;67.07;99817.08;107545;1282;73855;-71
2023/03/19 02:12:17;;;;;;;24.40;12.00;;;;;;;5.72;67.04;99812.66;107525;1279;57334;-71
2023/03/19 02:15:05;;;;;;;24.30;12.30;;;;;;;5.77;66.95;99820.59;107553;1278;58755;-70
2023/03/19 02:17:51;;;;;;;27.90;12.80;;;;;;;5.78;66.94;99819.61;107342;1279;73794;-71
2023/03/19 02:21:04;;;;;;;25.30;12.70;;;;;;;5.81;66.99;99818.44;107569;1280;66572;-70
2023/03/19 02:24:23;;;;;;;24.90;11.70;;;;;;;5.85;66.92;99816.27;107612;1279;70863;-71
2023/03/19 02:27:19;;;;;;;25.50;12.50;;;;;;;5.88;66.67;99818.36;107507;1280;57425;-71
2023/03/19 02:30:31;;;;;;;23.90;11.50;;;;;;;5.90;66.78;99811.69;107534;1279;60124;-71
2023/03/19 02:33:18;;;;;;;26.20;11.90;;;;;;;5.93;66.56;99809.94;107117;1279;73450;-72
2023/03/19 02:36:12;;;;;;;22.50;11.20;;;;;;;5.94;66.51;99808.80;107406;1279;65847;-70
2023/03/19 02:39:02;;;;;;;27.70;13.00;;;;;;;5.90;66.44;99799.38;107019;1280;72466;-71
2023/03/19 02:41:52;;;;;;;27.90;12.40;;;;;;;5.93;66.36;99806.81;106953;1280;57463;-71
2023/03/19 02:44:39;;;;;;;24.10;12.20;;;;;;;5.91;66.44;99809.39;106917;1279;58338;-72
2023/03/19 02:47:26;;;;;;;27.10;12.40;;;;;;;5.89;66.64;99805.30;106667;1279;1002108;-71
2023/03/19 02:50:12;;;;;;;25.20;12.50;;;;;;;5.87;66.68;99809.47;106991;1279;69165;-71
2023/03/19 02:52:59;;;;;;;25.90;12.70;;;;;;;5.84;66.64;99806.14;107359;1279;72548;-71
2023/03/19 02:55:45;;;;;;;24.80;12.10;;;;;;;5.80;66.83;99801.73;107261;1279;58064;-69
2023/03/19 02:58:32;;;;;;;26.40;13.10;;;;;;;5.76;66.91;99802.16;107425;1280;60169;-69
2023/03/19 03:01:19;;;;;;;22.60;11.50;;;;;;;5.72;66.98;99804.70;107313;1284;72964;-71
2023/03/19 03:04:06;;;;;;;26.70;13.70;;;;;;;5.69;67.21;99801.38;107541;1279;66397;-72
2023/03/19 03:06:53;;;;;;;30.10;14.80;;;;;;;5.66;67.15;99803.34;107631;1279;71198;-72
2023/03/19 03:09:40;;;;;;;24.20;12.20;;;;;;;5.63;67.33;99804.20;107606;1279;57364;-73
2023/03/19 03:12:26;;;;;;;28.50;13.10;;;;;;;5.62;67.46;99807.98;107653;1278;58806;-71
2023/03/19 03:15:13;;;;;;;30.40;13.80;;;;;;;5.60;67.56;99810.75;106883;1279;1002156;-71
2023/03/19 03:18:00;;;;;;;24.70;12.80;;;;;;;5.59;67.55;99810.80;107629;1277;67660;-70
2023/03/19 03:20:46;;;;;;;28.30;13.10;;;;;;;5.57;67.90;99811.77;107617;1278;71089;-71
2023/03/19 03:23:33;;;;;;;28.80;13.80;;;;;;;5.57;68.22;99814.64;107589;1278;59600;-71
2023/03/19 03:26:19;;;;;;;29.80;14.90;;;;;;;5.56;68.01;99817.11;107546;1277;60224;-71
2023/03/19 03:29:07;;;;;;;32.60;13.70;;;;;;;5.58;68.15;99814.76;107545;1278;73115;-72
2023/03/19 03:31:53;;;;;;;27.30;13.70;;;;;;;5.61;68.20;99814.00;107647;1278;66520;-69
2023/03/19 03:34:40;;;;;;;30.50;14.50;;;;;;;5.64;68.27;99812.95;107543;1278;72836;-70
2023/03/19 03:37:26;;;;;;;31.70;13.90;;;;;;;5.66;68.47;99813.39;107618;1278;57418;-70
2023/03/19 03:40:14;;;;;;;28.60;13.80;;;;;;;5.66;68.40;99812.84;107614;1278;61389;-70
2023/03/19 03:43:01;;;;;;;29.70;14.40;;;;;;;5.66;68.20;99810.76;107526;1278;74057;-69
2023/03/19 03:45:47;;;;;;;28.30;14.10;;;;;;;5.65;68.46;99815.73;107585;1277;68259;-68
2023/03/19 03:48:35;;;;;;;24.90;13.10;;;;;;;5.61;68.37;99818.77;107546;1278;72186;-71
2023/03/19 03:51:22;;;;;;;29.70;14.60;;;;;;;5.54;68.35;99812.86;107437;1278;57414;-71
2023/03/19 03:54:08;;;;;;;32.40;14.80;;;;;;;5.57;68.74;99819.39;107606;1279;59117;-69
2023/03/19 03:56:54;;;;;;;29.00;13.30;;;;;;;5.58;68.65;99820.35;107537;1279;72938;-72
2023/03/19 03:59:41;;;;;;;30.50;15.10;;;;;;;5.59;68.86;99821.16;107543;1278;67671;-72
2023/03/19 04:02:28;;;;;;;31.50;15.10;;;;;;;5.61;68.69;99826.14;107520;1278;73636;-73
2023/03/19 04:05:15;;;;;;;30.20;13.80;;;;;;;5.60;68.60;99821.62;107417;1278;57458;-74
2023/03/19 04:08:02;;;;;;;29.80;14.80;;;;;;;5.61;68.61;99824.77;107659;1278;60219;-71
2023/03/19 04:10:48;;;;;;;29.20;14.00;;;;;;;5.62;68.77;99821.17;107533;1279;73873;-69
2023/03/19 04:13:36;;;;;;;32.80;15.60;;;;;;;5.64;69.03;99822.09;107529;1278;66408;-70
2023/03/19 04:16:24;;;;;;;32.80;14.80;;;;;;;5.67;69.05;99819.79;107516;1277;73366;-71
2023/03/19 04:19:10;;;;;;;33.70;15.60;;;;;;;5.74;68.99;99815.02;107366;1278;59636;-71
2023/03/19 04:21:57;;;;;;;31.30;16.20;;;;;;;5.82;68.91;99810.81;107531;1277;60101;-72
2023/03/19 04:24:44;;;;;;;29.60;15.30;;;;;;;5.89;68.50;99811.95;107534;1277;71424;-71
2023/03/19 04:27:30;;;;;;;31.20;15.00;;;;;;;5.93;68.13;99816.10;107554;1278;67769;-71
2023/03/19 04:30:17;;;;;;;33.00;17.20;;;;;;;5.95;68.30;99819.16;107446;1277;72691;-71
2023/03/19 04:33:05;;;;;;;32.00;16.40;;;;;;;5.94;68.33;99818.13;107477;1279;57431;-71
2023/03/19 04:35:53;;;;;;;33.20;16.40;;;;;;;5.93;68.45;99816.61;107443;1277;60102;-71
2023/03/19 04:38:40;;;;;;;31.10;15.30;;;;;;;5.92;68.40;99820.55;107540;1278;71575;-71
2023/03/19 04:41:26;;;;;;;35.10;16.60;;;;;;;5.90;68.29;99824.40;107523;1278;66423;-70
2023/03/19 04:44:42;;;;;;;35.80;15.60;;;;;;;5.88;68.51;99824.35;107515;1279;72548;-71
2023/03/19 04:47:29;;;;;;;28.80;14.80;;;;;;;5.84;68.88;99823.71;107327;1277;57336;-72
2023/03/19 04:50:17;;;;;;;33.30;16.40;;;;;;;5.77;68.95;99824.66;107451;1278;58839;-69
2023/03/19 04:53:06;;;;;;;29.20;15.60;;;;;;;5.73;69.29;99824.58;107437;1281;74337;-69
2023/03/19 04:55:54;;;;;;;32.30;16.20;;;;;;;5.69;69.32;99820.54;107416;1277;67836;-72
2023/03/19 04:58:41;;;;;;;29.90;16.00;;;;;;;5.70;69.33;99817.91;107535;1277;71086;-68
2023/03/19 05:01:28;;;;;;;30.10;16.40;;;;;;;5.70;69.20;99818.25;107366;1277;57754;-68
2023/03/19 05:04:19;;;;;;;32.90;16.20;;;;;;;5.69;69.26;99815.66;107552;1277;60072;-71
2023/03/19 05:07:06;;;;;;;29.70;15.60;;;;;;;5.68;69.37;99809.77;107374;1277;71619;-70
2023/03/19 05:09:53;;;;;;;33.10;17.40;;;;;;;5.68;69.18;99809.77;107487;1278;68839;-70
2023/03/19 05:12:40;;;;;;;31.90;17.50;;;;;;;5.68;69.50;99808.64;107432;1278;72749;-71
2023/03/19 05:15:27;;;;;;;35.50;18.00;;;;;;;5.72;69.62;99815.48;107539;1278;57358;-71
2023/03/19 05:18:25;;;;;;;33.10;17.60;;;;;;;5.74;69.29;99810.73;107539;1277;58720;-73
2023/03/19 05:21:13;;;;;;;34.40;17.90;;;;;;;5.77;69.35;99809.35;107477;1278;73055;-71
2023/03/19 05:23:59;;;;;;;34.20;17.70;;;;;;;5.80;69.66;99809.86;107540;1277;66895;-73
2023/03/19 05:26:46;;;;;;;33.00;17.90;;;;;;;5.83;69.54;99808.27;107448;1279;72821;-71
2023/03/19 05:29:41;;;;;;;30.60;16.60;;;;;;;5.86;69.30;99809.33;107480;1278;58179;-72
2023/03/19 05:32:37;;;;;;;32.60;17.00;;;;;;;5.90;69.59;99810.87;107457;1278;58760;-72
2023/03/19 05:35:26;;;;;;;32.60;17.00;;;;;;;5.95;69.45;99815.81;107422;1278;71939;-72
2023/03/19 05:38:14;;;;;;;29.20;16.20;;;;;;;6.02;69.44;99817.03;107353;1279;67730;-74
2023/03/19 05:41:05;;;;;;;28.80;16.10;;;;;;;6.08;69.26;99823.82;107424;1281;71793;-72
2023/03/19 05:44:02;;;;;;;29.70;15.60;;;;;;;6.12;69.10;99828.34;107384;1278;58736;-69
2023/03/19 05:47:15;;;;;;;30.60;16.40;;;;;;;6.19;69.17;99831.08;107130;1279;61226;-70
2023/03/19 05:50:06;;;;;;;30.50;15.50;;;;;;;6.23;68.77;99830.30;107368;1279;72790;-69
2023/03/19 05:52:53;;;;;;;31.80;17.50;;;;;;;6.27;68.78;99838.47;107465;1278;67823;-68
2023/03/19 05:55:40;;;;;;;33.00;16.40;;;;;;;6.35;68.39;99838.19;106995;1281;73695;-70
2023/03/19 05:58:28;;;;;;;29.00;15.10;;;;;;;6.43;68.45;99837.47;106945;1282;57507;-71
2023/03/19 06:01:15;;;;;;;28.30;15.40;;;;;;;6.54;68.03;99836.98;106771;1282;58890;-71
2023/03/19 06:04:01;;;;;;;26.70;13.90;;;;;;;6.69;67.64;99838.85;106896;1283;73215;-68
2023/03/19 06:06:51;;;;;;;27.30;14.50;;;;;;;6.87;67.34;99840.12;106901;1281;68583;-68
2023/03/19 06:09:39;;;;;;;27.70;14.70;;;;;;;7.12;66.88;99842.53;106889;1281;71475;-70
2023/03/19 06:12:26;;;;;;;28.40;14.50;;;;;;;7.36;66.24;99838.25;106282;1281;1002272;-71
2023/03/19 06:15:30;;;;;;;27.70;12.20;;;;;;;7.60;66.04;99839.11;107046;1281;60323;-68
2023/03/19 06:18:22;;;;;;;32.10;16.20;;;;;;;7.85;65.21;99841.84;107148;1282;72982;-71
2023/03/19 06:21:09;;;;;;;26.20;15.50;;;;;;;8.03;64.93;99834.75;107044;1281;67245;-70
2023/03/19 06:23:56;;;;;;;29.60;15.80;;;;;;;8.25;64.54;99840.58;107036;1283;73517;-63
2023/03/19 06:26:48;;;;;;;28.40;14.70;;;;;;;8.39;63.18;99835.85;107145;1279;58080;-64
2023/03/19 06:29:35;;;;;;;25.60;14.60;;;;;;;8.61;62.50;99841.94;107356;1279;60035;-65
2023/03/19 06:32:32;;;;;;;32.90;16.60;;;;;;;8.83;61.99;99844.95;107358;1279;74194;-64
2023/03/19 06:35:23;;;;;;;26.40;14.50;;;;;;;9.03;61.16;99840.94;107459;1279;66626;-65
2023/03/19 06:38:10;;;;;;;30.70;17.30;;;;;;;9.23;60.57;99843.73;107349;1279;73518;-64
2023/03/19 06:40:56;;;;;;;32.40;16.90;;;;;;;9.39;60.05;99835.73;107461;1279;57777;-65
2023/03/19 06:43:43;;;;;;;33.40;17.20;;;;;;;9.60;59.16;99841.80;107453;1279;58863;-65
2023/03/19 06:46:30;;;;;;;30.10;16.00;;;;;;;9.69;58.74;99846.20;107454;1278;72898;-64
2023/03/19 06:49:16;;;;;;;33.00;17.50;;;;;;;9.76;58.94;99844.10;107416;1279;66672;-65
2023/03/19 06:52:03;;;;;;;30.00;16.10;;;;;;;9.82;58.45;99851.66;107422;1279;71322;-65
2023/03/19 06:54:50;;;;;;;31.20;17.10;;;;;;;9.79;58.18;99853.60;107441;1278;57876;-65
2023/03/19 06:57:36;;;;;;;32.30;18.40;;;;;;;9.81;58.40;99859.27;107506;1278;59071;-69
2023/03/19 07:00:23;;;;;;;31.90;17.00;;;;;;;9.91;58.49;99858.91;107411;1278;72659;-69
2023/03/19 07:03:10;;;;;;;29.20;15.10;;;;;;;10.06;57.72;99861.47;107477;1278;68686;-70
2023/03/19 07:05:56;;;;;;;31.00;15.80;;;;;;;10.37;56.78;99865.21;107432;1278;72704;-72
2023/03/19 07:08:45;;;;;;;28.20;16.10;;;;;;;10.95;56.42;99866.07;107443;1278;57572;-72
2023/03/19 07:11:31;;;;;;;29.20;15.60;;;;;;;11.83;55.04;99868.78;107402;1278;61385;-69
2023/03/19 07:14:22;;;;;;;30.30;16.20;;;;;;;12.72;53.06;99869.93;107335;1278;71600;-71
2023/03/19 07:17:08;;;;;;;27.70;15.60;;;;;;;14.01;50.61;99866.82;107344;1279;68718;-70
2023/03/19 07:19:56;;;;;;;31.20;17.30;;;;;;;15.27;47.23;99866.45;107505;1278;72766;-70
2023/03/19 07:22:43;;;;;;;29.30;15.90;;;;;;;16.58;44.42;99857.67;107469;1277;57710;-68
2023/03/19 07:25:30;;;;;;;26.80;14.70;;;;;;;17.74;42.07;99851.89;107476;1278;58715;-70
2023/03/19 07:28:16;;;;;;;26.80;15.20;;;;;;;18.67;40.35;99850.88;107595;1278;73879;-69
2023/03/19 07:31:03;;;;;;;24.10;15.50;;;;;;;19.43;38.73;99851.90;107572;1278;68977;-72
2023/03/19 07:33:50;;;;;;;24.80;14.60;;;;;;;20.28;36.68;99848.35;107397;1278;72443;-70
2023/03/19 07:36:37;;;;;;;23.50;13.80;;;;;;;20.97;35.39;99848.23;107155;1279;57870;-73
2023/03/19 07:39:23;;;;;;;22.50;14.20;;;;;;;21.52;34.07;99847.10;107461;1278;60027;-72
2023/03/19 07:42:10;;;;;;;21.20;13.40;;;;;;;22.09;32.79;99847.17;107374;1277;71162;-72
2023/03/19 07:45:01;;;;;;;21.70;13.20;;;;;;;22.00;32.46;99848.61;107424;1278;67746;-71
2023/03/19 07:47:50;;;;;;;23.20;12.90;;;;;;;21.21;32.79;99848.96;107477;1277;71386;-72
2023/03/19 07:50:37;;;;;;;21.80;12.20;;;;;;;20.38;33.58;99852.73;107295;1278;57384;-70
2023/03/19 07:53:23;;;;;;;22.50;13.80;;;;;;;20.41;33.90;99852.40;107428;1278;60220;-72
2023/03/19 07:56:11;;;;;;;26.20;10.00;;;;;;;20.71;33.60;99854.17;107558;1277;70870;-70
2023/03/19 07:58:58;;;;;;;24.00;12.70;;;;;;;21.45;32.51;99854.29;107415;1277;67629;-72
2023/03/19 08:01:45;;;;;;;25.20;12.80;;;;;;;21.98;32.19;99855.77;107460;1278;73752;-72
2023/03/19 08:04:33;;;;;;;19.90;11.90;;;;;;;22.65;31.74;99851.52;107464;1278;58959;-74
2023/03/19 08:07:20;;;;;;;23.30;12.80;;;;;;;23.22;30.92;99855.00;107490;1279;58966;-70
2023/03/19 08:10:07;;;;;;;21.50;11.30;;;;;;;23.75;29.50;99857.06;107509;1279;71633;-69
2023/03/19 08:12:53;;;;;;;22.90;11.60;;;;;;;23.90;29.27;99859.30;107507;1279;66292;-72
2023/03/19 08:15:41;;;;;;;16.90;10.90;;;;;;;24.28;28.60;99855.70;107435;1279;72682;-72
2023/03/19 08:18:27;;;;;;;21.20;11.40;;;;;;;24.55;28.05;99852.92;107427;1278;57485;-71
2023/03/19 08:21:13;;;;;;;18.40;10.80;;;;;;;24.93;27.88;99852.23;107568;1278;59040;-69
2023/03/19 08:23:59;;;;;;;20.60;11.80;;;;;;;25.33;27.40;99854.45;107436;1279;73104;-70
2023/03/19 08:26:46;;;;;;;19.20;11.70;;;;;;;25.64;26.79;99849.80;107427;1279;67767;-71
2023/03/19 08:29:34;;;;;;;18.10;11.20;;;;;;;25.79;26.48;99849.66;107476;1279;71254;-70
2023/03/19 08:32:20;;;;;;;20.00;12.00;;;;;;;26.02;26.26;99850.09;107445;1279;57811;-70
2023/03/19 08:35:07;;;;;;;18.60;10.60;;;;;;;26.37;26.04;99847.13;107467;1279;58792;-70
2023/03/19 08:37:54;;;;;;;18.50;10.00;;;;;;;26.63;25.59;99840.24;107449;1278;72746;-73
2023/03/19 08:40:41;;;;;;;16.80;8.60;;;;;;;26.85;25.39;99839.29;107491;1279;68999;-73
2023/03/19 08:43:30;;;;;;;17.90;10.00;;;;;;;26.85;25.06;99836.39;107421;1279;71274;-69
2023/03/19 08:46:17;;;;;;;16.50;10.00;;;;;;;26.96;25.20;99834.89;107273;1279;58406;-71
2023/03/19 08:49:04;;;;;;;16.60;9.00;;;;;;;27.43;25.06;99836.81;107440;1278;60136;-72
2023/03/19 08:51:51;;;;;;;17.40;9.90;;;;;;;27.76;24.29;99836.66;107404;1277;71824;-69
2023/03/19 08:54:37;;;;;;;18.10;9.20;;;;;;;27.82;24.32;99833.35;107514;1278;67762;-70
2023/03/19 08:57:24;;;;;;;13.80;8.10;;;;;;;27.65;24.34;99834.59;107374;1279;71091;-70
2023/03/19 09:00:11;;;;;;;13.60;7.60;;;;;;;27.71;24.47;99830.95;107137;1281;58415;-72
2023/03/19 09:02:57;;;;;;;14.70;7.80;;;;;;;27.56;24.40;99830.59;106917;1281;58738;-72
2023/03/19 09:05:45;;;;;;;15.10;8.20;;;;;;;27.16;24.82;99831.31;106976;1281;74081;-71
2023/03/19 09:08:31;;;;;;;14.60;8.30;;;;;;;26.61;25.38;99828.19;107052;1281;67817;-71
2023/03/19 09:11:17;;;;;;;16.10;8.70;;;;;;;26.32;25.73;99829.68;107146;1282;72769;-72
2023/03/19 09:14:04;;;;;;;13.80;7.70;;;;;;;26.21;25.66;99829.27;107147;1281;57345;-72
2023/03/19 09:16:51;;;;;;;15.30;9.10;;;;;;;26.43;25.90;99828.67;107027;1281;60102;-70
2023/03/19 09:19:37;;;;;;;16.90;9.60;;;;;;;27.13;25.66;99824.23;107162;1281;72909;-71
2023/03/19 09:22:24;;;;;;;16.30;9.70;;;;;;;27.60;24.49;99828.84;107166;1281;66593;-71
2023/03/19 09:25:11;;;;;;;17.90;9.00;;;;;;;27.61;24.38;99825.05;106958;1281;72612;-74
2023/03/19 09:27:57;;;;;;;14.00;8.10;;;;;;;27.67;24.95;99822.16;106974;1281;57888;-74
2023/03/19 09:30:48;;;;;;;15.70;9.00;;;;;;;28.17;24.10;99827.12;107198;1279;60040;-73
2023/03/19 09:33:35;;;;;;;15.30;7.80;;;;;;;28.22;23.74;99827.83;107464;1279;73205;-71
2023/03/19 09:36:21;;;;;;;14.30;8.00;;;;;;;28.00;23.97;99827.77;107434;1278;68256;-70
2023/03/19 09:39:07;;;;;;;16.50;9.00;;;;;;;28.04;24.19;99829.35;107437;1279;72782;-70
2023/03/19 09:42:14;;;;;;;13.70;7.90;;;;;;;27.61;24.72;99828.70;107494;1279;57371;-70
2023/03/19 09:45:01;;;;;;;16.10;8.70;;;;;;;27.49;24.90;99826.30;107486;1279;58844;-71
2023/03/19 09:47:54;;;;;;;13.60;8.30;;;;;;;27.51;24.82;99824.70;107419;1279;72815;-70
2023/03/19 09:50:41;;;;;;;15.90;8.70;;;;;;;27.45;24.98;99819.05;107508;1278;67993;-74
2023/03/19 09:53:56;;;;;;;16.90;9.20;;;;;;;27.42;25.05;99819.42;107455;1277;71443;-73
2023/03/19 09:56:43;;;;;;;24.90;8.90;;;;;;;27.04;25.22;99811.67;107285;1278;57728;-74
2023/03/19 09:59:30;;;;;;;15.10;8.70;;;;;;;26.92;25.69;99808.91;107776;1277;58732;-68
2023/03/19 10:02:22;;;;;;;16.60;9.30;;;;;;;26.69;26.01;99806.75;108024;1278;71552;-71
2023/03/19 10:05:44;;;;;;;16.50;9.20;;;;;;;26.02;26.44;99810.05;107873;1278;68303;-70
2023/03/19 10:08:55;;;;;;;17.90;10.60;;;;;;;24.90;27.64;99813.40;107829;1278;71181;-71
2023/03/19 10:12:25;;;;;;;16.90;10.20;;;;;;;24.31;28.70;99818.00;107474;1279;57327;-69
2023/03/19 10:15:37;;;;;;;17.80;9.20;;;;;;;24.40;28.91;99815.96;107560;1278;60209;-70
2023/03/19 10:18:33;;;;;;;15.30;8.50;;;;;;;23.87;29.55;99816.09;107458;1278;74101;-68
2023/03/19 10:21:49;;;;;;;15.00;8.50;;;;;;;23.80;29.80;99818.39;107477;1279;68020;-69
2023/03/19 10:24:40;;;;;;;17.30;9.20;;;;;;;24.37;29.32;99808.70;107453;1279;73363;-73
2023/03/19 10:27:28;;;;;;;15.90;8.40;;;;;;;25.06;28.46;99808.77;107409;1278;57334;-70
2023/03/19 10:30:18;;;;;;;16.10;9.00;;;;;;;25.81;27.92;99810.17;107380;1279;60057;-71
2023/03/19 10:33:56;;;;;;;15.60;8.40;;;;;;;26.97;26.94;99809.58;107518;1277;72897;-71
2023/03/19 10:36:42;;;;;;;17.40;9.60;;;;;;;27.17;26.04;99812.77;107325;1278;68808;-69
2023/03/19 10:39:36;;;;;;;17.10;8.80;;;;;;;26.29;26.68;99806.85;107485;1278;71462;-69
2023/03/19 10:42:50;;;;;;;17.00;9.10;;;;;;;25.63;27.84;99806.01;107460;1278;57364;-69
2023/03/19 10:45:37;;;;;;;16.80;8.80;;;;;;;25.28;28.28;99803.21;107556;1278;58880;-70
2023/03/19 10:48:26;;;;;;;15.60;7.80;;;;;;;25.24;28.43;99803.36;107483;1278;72727;-69
2023/03/19 10:51:25;;;;;;;15.10;8.30;;;;;;;25.61;27.96;99799.95;107580;1278;67585;-70
2023/03/19 10:54:29;;;;;;;15.20;8.50;;;;;;;26.08;27.34;99802.10;107458;1277;72757;-71
2023/03/19 10:57:25;;;;;;;13.70;7.90;;;;;;;26.59;26.88;99797.06;107378;1278;57887;-71
2023/03/19 11:00:23;;;;;;;15.20;6.60;;;;;;;27.07;26.53;99800.27;107580;1278;60088;-69
2023/03/19 11:03:33;;;;;;;13.80;7.30;;;;;;;27.46;25.63;99802.01;107603;1278;70888;-72
2023/03/19 11:06:26;;;;;;;15.40;7.80;;;;;;;28.14;25.24;99791.92;107576;1278;66288;-72
2023/03/19 11:09:22;;;;;;;15.20;7.50;;;;;;;28.21;24.79;99790.60;107276;1279;72602;-70
2023/03/19 11:12:25;;;;;;;13.60;7.20;;;;;;;27.43;25.84;99790.59;107376;1279;57299;-72
2023/03/19 11:15:25;;;;;;;15.10;6.30;;;;;;;27.15;26.08;99791.45;107480;1279;60230;-69
2023/03/19 11:18:36;;;;;;;12.50;6.40;;;;;;;26.42;27.12;99791.73;107392;1279;71609;-69
2023/03/19 11:21:29;;;;;;;13.60;6.50;;;;;;;25.80;27.62;99789.73;107248;1278;68722;-68
2023/03/19 11:24:16;;;;;;;13.40;6.40;;;;;;;24.92;28.61;99787.67;107456;1279;72700;-70
2023/03/19 11:27:03;;;;;;;12.60;6.60;;;;;;;24.42;29.48;99784.36;107387;1279;58955;-71
2023/03/19 11:29:49;;;;;;;15.70;7.70;;;;;;;24.62;29.32;99783.42;107449;1279;59399;-70
2023/03/19 11:33:12;;;;;;;12.50;6.60;;;;;;;24.89;29.15;99785.02;107426;1279;72943;-70
2023/03/19 11:36:32;;;;;;;12.60;6.20;;;;;;;24.82;28.94;99781.69;107423;1279;68068;-70
2023/03/19 11:39:48;;;;;;;14.70;6.60;;;;;;;24.93;28.80;99784.71;107402;1279;72709;-70
2023/03/19 11:43:02;;;;;;;13.60;5.90;;;;;;;25.27;28.55;99777.08;107439;1279;57691;-71
2023/03/19 11:46:07;;;;;;;11.80;5.80;;;;;;;25.10;28.63;99777.83;107459;1279;60102;-70
2023/03/19 11:49:24;;;;;;;12.80;5.40;;;;;;;24.88;28.70;99777.38;107468;1279;71598;-70
2023/03/19 11:52:59;;;;;;;12.40;6.00;;;;;;;24.47;29.12;99777.68;107289;1279;68104;-73
2023/03/19 11:55:51;;;;;;;9.20;4.70;;;;;;;24.43;29.61;99776.83;107519;1279;71395;-69
2023/03/19 11:58:56;;;;;;;12.10;4.80;;;;;;;23.99;29.95;99778.44;107428;1279;57740;-69
2023/03/19 12:02:09;;;;;;;12.10;4.70;;;;;;;23.42;30.62;99780.63;107448;1279;58857;-71
2023/03/19 12:05:23;;;;;;;13.70;5.20;;;;;;;23.12;31.27;99779.25;107429;1279;71988;-70
2023/03/19 12:08:22;;;;;;;10.70;5.50;;;;;;;23.15;31.24;99777.08;107526;1277;66487;-72
2023/03/19 12:11:32;;;;;;;12.40;5.80;;;;;;;23.30;31.14;99780.30;107537;1278;72721;-71
2023/03/19 12:14:57;;;;;;;12.80;5.20;;;;;;;23.46;31.01;99772.52;107562;1278;57394;-72
2023/03/19 12:18:36;;;;;;;12.70;5.80;;;;;;;23.45;30.86;99759.78;107320;1277;60270;-71
2023/03/19 12:21:56;;;;;;;10.10;5.10;;;;;;;23.57;30.47;99765.14;107412;1278;72910;-72
2023/03/19 12:25:51;;;;;;;13.30;6.20;;;;;;;23.11;31.20;99756.04;107518;1279;67815;-71
2023/03/19 12:29:06;;;;;;;12.70;6.30;;;;;;;22.76;31.70;99752.36;105954;1293;71139;-73
2023/03/19 12:32:13;;;;;;;12.50;5.30;;;;;;;22.28;32.31;99747.13;106064;1292;57870;-72
2023/03/19 12:35:09;;;;;;;13.30;5.50;;;;;;;21.87;33.17;99748.02;106110;1292;60152;-71
2023/03/19 12:38:07;;;;;;;11.50;5.70;;;;;;;21.68;33.69;99747.42;106016;1294;73541;-74
2023/03/19 12:41:06;;;;;;;10.70;5.10;;;;;;;21.60;33.82;99742.89;106010;1293;67755;-72
2023/03/19 12:44:07;;;;;;;12.50;5.60;;;;;;;21.36;34.01;99746.48;106022;1293;72723;-71
2023/03/19 12:47:17;;;;;;;13.20;6.00;;;;;;;21.08;34.66;99743.58;105888;1293;57400;-73
2023/03/19 12:50:12;;;;;;;14.20;5.70;;;;;;;20.76;35.26;99739.47;106039;1293;60380;-72
2023/03/19 12:53:00;;;;;;;12.20;5.90;;;;;;;20.56;35.41;99733.06;105938;1293;74231;-73
2023/03/19 12:55:56;;;;;;;12.30;5.20;;;;;;;20.48;35.67;99737.84;105972;1292;67594;-71
2023/03/19 12:59:41;;;;;;;14.10;6.20;;;;;;;20.36;36.03;99736.39;105979;1292;72796;-71
2023/03/19 13:03:00;;;;;;;14.40;5.80;;;;;;;20.29;36.15;99733.23;105538;1299;59240;-74
2023/03/19 13:06:03;;;;;;;12.30;6.10;;;;;;;19.88;37.02;99731.33;106455;1287;58162;-72
2023/03/19 13:09:03;;;;;;;12.90;5.60;;;;;;;19.69;37.84;99736.45;106532;1287;73503;-70
2023/03/19 13:12:06;;;;;;;14.70;5.90;;;;;;;19.83;38.03;99732.34;106365;1287;66728;-71
2023/03/19 13:15:36;;;;;;;12.50;6.00;;;;;;;19.89;37.78;99728.65;106367;1287;72746;-72